createdAt,value
2019-01-21T00:02:32.695Z,52.08
2019-01-21T00:05:06.706Z,43.48
2019-01-21T00:07:39.361Z,39.60
2019-01-21T00:10:12.339Z,40.85
2019-01-21T00:12:45.007Z,49.40
2019-01-21T00:15:18.912Z,46.10
2019-01-21T00:17:52.414Z,38.40
2019-01-21T00:20:26.029Z,45.63
2019-01-21T00:22:59.712Z,39.85
2019-01-21T00:25:32.322Z,42.15
2019-01-21T00:28:06.303Z,45.00
2019-01-21T00:30:39.317Z,41.25
2019-01-21T00:33:12.764Z,49.30
2019-01-21T00:35:47.206Z,41.75
2019-01-21T00:38:26.361Z,43.78
2019-01-21T00:41:01.718Z,36.30
2019-01-21T00:43:37.471Z,40.48
2019-01-21T00:46:11.291Z,38.48
2019-01-21T00:48:43.958Z,36.38
2019-01-21T00:51:17.056Z,36.42
2019-01-21T00:53:50.525Z,52.53
2019-01-21T00:56:33.780Z,38.98
2019-01-21T00:59:08.487Z,39.58
2019-01-21T01:01:43.438Z,36.68
2019-01-21T01:04:18.869Z,40.80
2019-01-21T01:06:58.579Z,38.63
2019-01-21T01:09:38.143Z,37.73
2019-01-21T01:12:12.986Z,43.70
2019-01-21T01:14:48.309Z,34.40
2019-01-21T01:17:33.363Z,36.77
2019-01-21T01:20:22.674Z,38.25
2019-01-21T01:23:20.158Z,33.00
2019-01-21T01:26:00.402Z,35.43
2019-01-21T01:28:34.192Z,44.42
2019-01-21T01:31:10.866Z,32.48
2019-01-21T01:33:49.264Z,36.28
2019-01-21T01:36:31.566Z,40.10
2019-01-21T01:39:07.082Z,36.28
2019-01-21T01:41:41.120Z,38.55
2019-01-21T01:44:13.720Z,36.95
2019-01-21T01:46:51.099Z,31.60
2019-01-21T01:49:25.822Z,40.20
2019-01-21T01:51:58.876Z,44.40
2019-01-21T01:54:32.986Z,36.17
2019-01-21T01:57:12.477Z,33.10
2019-01-21T01:59:47.756Z,42.17
2019-01-21T02:02:20.448Z,39.70
2019-01-21T02:04:54.621Z,45.15
2019-01-21T02:07:28.514Z,34.80
2019-01-21T02:10:01.207Z,35.90
2019-01-21T02:12:34.204Z,36.65
2019-01-21T02:15:09.318Z,34.50
2019-01-21T02:17:42.848Z,35.23
2019-01-21T02:20:16.341Z,37.25
2019-01-21T02:22:54.679Z,34.63
2019-01-21T02:25:33.614Z,39.00
2019-01-21T02:28:21.108Z,41.25
2019-01-21T02:31:18.065Z,37.05
2019-01-21T02:34:22.180Z,40.33
2019-01-21T02:37:20.261Z,39.25
2019-01-21T02:40:10.836Z,41.53
2019-01-21T02:42:52.855Z,33.80
2019-01-21T02:46:18.472Z,41.42
2019-01-21T02:49:31.934Z,37.55
2019-01-21T02:52:52.746Z,30.65
2019-01-21T02:55:35.101Z,34.27
2019-01-21T02:58:36.075Z,34.20
2019-01-21T03:01:31.682Z,38.83
2019-01-21T03:04:58.414Z,44.35
2019-01-21T03:07:40.163Z,42.62
2019-01-21T03:10:48.610Z,51.75
2019-01-21T03:13:50.635Z,41.20
2019-01-21T03:17:04.180Z,43.40
2019-01-21T03:20:13.323Z,36.17
2019-01-21T03:23:26.114Z,34.78
2019-01-21T03:26:32.597Z,34.90
2019-01-21T03:29:40.528Z,33.28
2019-01-21T03:32:59.660Z,38.13
2019-01-21T03:36:30.778Z,38.85
2019-01-21T03:39:36.330Z,35.33
2019-01-21T03:42:46.113Z,42.78
2019-01-21T03:45:57.976Z,48.05
2019-01-21T03:49:09.306Z,46.92
2019-01-21T03:52:41.782Z,40.10
2019-01-21T03:55:26.613Z,45.12
2019-01-21T03:59:34.729Z,41.05
2019-01-21T04:03:26.584Z,37.67
2019-01-21T04:06:56.933Z,36.08
2019-01-21T04:10:20.295Z,39.00
2019-01-21T04:13:58.984Z,43.08
2019-01-21T04:17:12.694Z,37.38
2019-01-21T04:20:00.192Z,43.68
2019-01-21T04:23:18.154Z,41.53
2019-01-21T04:26:21.627Z,37.00
2019-01-21T04:29:51.435Z,39.40
2019-01-21T04:33:18.107Z,39.18
2019-01-21T04:36:20.205Z,40.03
2019-01-21T04:39:31.678Z,39.42
2019-01-21T04:42:52.042Z,38.33
2019-01-21T04:45:56.510Z,37.03
2019-01-21T04:48:53.937Z,39.08
2019-01-21T04:52:12.842Z,39.70
2019-01-21T04:55:37.113Z,39.83
2019-01-21T04:58:43.121Z,39.70
2019-01-21T05:01:51.547Z,39.27
2019-01-21T05:05:03.003Z,35.13
2019-01-21T05:08:22.052Z,38.85
2019-01-21T05:12:16.063Z,46.37
2019-01-21T05:15:51.599Z,48.05
2019-01-21T05:19:17.193Z,39.60
2019-01-21T05:22:48.160Z,34.13
2019-01-21T05:26:08.111Z,44.30
2019-01-21T05:29:20.745Z,39.55
2019-01-21T05:32:43.618Z,42.73
2019-01-21T05:35:58.283Z,46.25
2019-01-21T05:39:04.118Z,43.98
2019-01-21T05:42:35.627Z,39.85
2019-01-21T05:45:51.587Z,43.95
2019-01-21T05:48:56.539Z,45.33
2019-01-21T05:52:25.226Z,41.63
2019-01-21T05:55:50.096Z,43.23
2019-01-21T05:59:19.231Z,41.90
2019-01-21T06:02:39.857Z,41.13
2019-01-21T06:06:03.867Z,47.13
2019-01-21T06:09:31.824Z,45.20
2019-01-21T06:12:30.076Z,45.90
2019-01-21T06:15:46.994Z,39.05
2019-01-21T06:19:03.531Z,43.48
2019-01-21T06:22:20.547Z,40.85
2019-01-21T06:29:08.416Z,46.02
2019-01-21T06:32:12.176Z,41.33
2019-01-21T06:35:35.721Z,45.45
2019-01-21T06:39:10.592Z,56.33
2019-01-21T06:42:37.947Z,49.98
2019-01-21T06:45:43.431Z,39.83
2019-01-21T06:49:04.832Z,42.25
2019-01-21T06:52:09.573Z,45.00
2019-01-21T06:55:15.618Z,44.45
2019-01-21T06:58:23.209Z,43.75
2019-01-21T07:01:55.178Z,57.13
2019-01-21T07:05:10.244Z,45.65
2019-01-21T07:08:48.933Z,44.85
2019-01-21T07:12:05.911Z,48.35
2019-01-21T07:15:24.735Z,51.53
2019-01-21T07:18:54.734Z,44.23
2019-01-21T07:22:26.890Z,46.02
2019-01-21T07:25:54.727Z,55.00
2019-01-21T07:28:57.596Z,46.18
2019-01-21T07:32:19.607Z,55.63
2019-01-21T07:36:00.244Z,43.33
2019-01-21T07:38:55.578Z,44.85
2019-01-21T07:46:18.487Z,44.18
2019-01-21T07:49:27.843Z,49.08
2019-01-21T07:52:32.463Z,48.15
2019-01-21T07:56:08.375Z,41.58
2019-01-21T07:59:51.129Z,48.65
2019-01-21T08:03:04.161Z,50.33
2019-01-21T08:06:41.167Z,47.25
2019-01-21T08:10:04.529Z,38.13
2019-01-21T08:13:36.974Z,39.55
2019-01-21T08:17:07.018Z,46.20
2019-01-21T08:20:33.170Z,39.83
2019-01-21T08:27:57.241Z,43.30
2019-01-21T08:31:36.967Z,40.60
2019-01-21T08:34:46.992Z,39.75
2019-01-21T08:37:43.638Z,44.23
2019-01-21T08:40:58.449Z,45.43
2019-01-21T08:44:12.523Z,37.38
2019-01-21T08:47:24.018Z,42.40
2019-01-21T08:50:21.153Z,59.58
2019-01-21T08:53:54.178Z,40.78
2019-01-21T08:57:14.075Z,48.73
2019-01-21T09:00:15.520Z,47.00
2019-01-21T09:03:38.760Z,44.30
2019-01-21T09:06:46.189Z,41.60
2019-01-21T09:09:55.895Z,44.63
2019-01-21T09:13:03.359Z,45.25
2019-01-21T09:16:11.214Z,41.48
2019-01-21T09:19:18.756Z,40.15
2019-01-21T09:22:30.054Z,42.23
2019-01-21T09:29:24.783Z,37.73
2019-01-21T09:32:48.095Z,35.23
2019-01-21T09:36:03.498Z,33.58
2019-01-21T09:39:31.681Z,33.08
2019-01-21T09:42:52.857Z,37.15
2019-01-21T09:46:12.088Z,37.88
2019-01-21T09:48:50.009Z,37.38
2019-01-21T09:51:30.229Z,41.63
2019-01-21T09:54:09.425Z,36.40
2019-01-21T09:56:50.356Z,34.33
2019-01-21T09:59:37.861Z,32.70
2019-01-21T10:02:17.112Z,33.73
2019-01-21T10:05:12.489Z,35.33
2019-01-21T10:08:19.397Z,31.37
2019-01-21T10:11:34.663Z,35.25
2019-01-21T10:14:28.842Z,34.73
2019-01-21T10:17:34.882Z,34.33
2019-01-21T10:21:04.902Z,33.00
2019-01-21T10:24:21.167Z,32.98
2019-01-21T10:27:31.014Z,33.38
2019-01-21T10:30:42.459Z,32.67
2019-01-21T10:33:56.642Z,33.23
2019-01-21T10:37:06.683Z,32.88
2019-01-21T10:40:14.694Z,28.42
2019-01-21T10:43:31.499Z,28.77
2019-01-21T10:46:47.383Z,39.38
2019-01-21T10:49:46.738Z,23.50
2019-01-21T10:52:51.549Z,24.70
2019-01-21T10:56:16.030Z,25.60
2019-01-21T10:59:24.359Z,29.12
2019-01-21T11:03:03.330Z,25.68
2019-01-21T11:06:32.402Z,25.20
2019-01-21T11:09:45.412Z,29.82
2019-01-21T11:12:54.671Z,27.17
2019-01-21T11:16:17.401Z,44.15
2019-01-21T11:19:22.032Z,31.82
2019-01-21T11:22:25.043Z,28.50
2019-01-21T11:25:45.752Z,26.27
2019-01-21T11:28:37.072Z,28.92
2019-01-21T11:31:42.019Z,29.95
2019-01-21T11:34:52.559Z,28.65
2019-01-21T11:37:44.310Z,27.70
2019-01-21T11:40:58.626Z,35.70
2019-01-21T11:44:09.327Z,30.95
2019-01-21T11:47:10.257Z,32.08
2019-01-21T11:51:00.849Z,26.80
2019-01-21T11:54:34.870Z,30.48
2019-01-21T11:58:11.447Z,33.30
2019-01-21T12:01:08.010Z,27.27
2019-01-21T12:04:22.046Z,33.70
2019-01-21T12:07:28.377Z,34.78
2019-01-21T12:10:56.384Z,29.82
2019-01-21T12:14:15.223Z,32.67
2019-01-21T12:17:43.393Z,32.17
2019-01-21T12:21:22.863Z,29.67
2019-01-21T12:24:38.484Z,30.17
2019-01-21T12:28:13.218Z,29.05
2019-01-21T12:31:05.735Z,28.98
2019-01-21T12:34:27.059Z,26.30
2019-01-21T12:37:30.458Z,23.70
2019-01-21T12:40:31.152Z,24.23
2019-01-21T12:43:44.040Z,23.18
2019-01-21T12:46:54.826Z,24.50
2019-01-21T12:50:37.812Z,23.85
2019-01-21T12:53:59.679Z,26.65
2019-01-21T12:57:19.022Z,22.95
2019-01-21T13:00:33.933Z,22.40
2019-01-21T13:03:40.817Z,23.25
2019-01-21T13:10:37.171Z,24.52
2019-01-21T13:13:52.182Z,25.85
2019-01-21T13:16:55.632Z,27.80
2019-01-21T13:19:50.767Z,24.90
2019-01-21T13:23:41.675Z,23.15
2019-01-21T13:27:09.669Z,29.15
2019-01-21T13:30:39.328Z,25.17
2019-01-21T13:33:38.033Z,26.97
2019-01-21T13:36:48.777Z,24.67
2019-01-21T13:40:07.929Z,23.30
2019-01-21T13:42:51.838Z,29.92
2019-01-21T13:46:02.016Z,27.95
2019-01-21T13:49:21.665Z,25.52
2019-01-21T13:53:02.041Z,24.40
2019-01-21T13:56:18.581Z,29.45
2019-01-21T13:59:40.826Z,24.23
2019-01-21T14:02:35.527Z,28.07
2019-01-21T14:05:52.643Z,24.52
2019-01-21T14:08:48.547Z,30.20
2019-01-21T14:12:09.549Z,28.90
2019-01-21T14:15:00.681Z,30.82
2019-01-21T14:18:18.502Z,34.40
2019-01-21T14:21:17.541Z,33.02
2019-01-21T14:24:41.279Z,35.05
2019-01-21T14:27:37.829Z,32.13
2019-01-21T14:31:27.826Z,37.55
2019-01-21T14:34:39.855Z,33.30
2019-01-21T14:38:07.306Z,37.10
2019-01-21T14:41:36.500Z,30.88
2019-01-21T14:45:18.635Z,35.98
2019-01-21T14:48:40.693Z,35.17
2019-01-21T14:51:58.779Z,33.78
2019-01-21T14:55:18.478Z,32.60
2019-01-21T14:58:46.258Z,37.25
2019-01-21T15:01:44.630Z,31.70
2019-01-21T15:04:49.498Z,34.63
2019-01-21T15:11:39.422Z,33.30
2019-01-21T15:14:29.172Z,40.67
2019-01-21T15:17:43.782Z,38.73
2019-01-21T15:20:57.506Z,38.30
2019-01-21T15:24:04.946Z,39.00
2019-01-21T15:30:38.774Z,36.90
2019-01-21T15:33:56.366Z,34.27
2019-01-21T15:37:24.171Z,41.90
2019-01-21T15:40:58.128Z,39.25
2019-01-21T15:44:03.674Z,39.08
2019-01-21T15:47:25.408Z,47.93
2019-01-21T15:50:36.921Z,38.35
2019-01-21T15:54:04.977Z,39.70
2019-01-21T15:57:10.323Z,40.85
2019-01-21T16:00:55.226Z,39.83
2019-01-21T16:04:14.663Z,40.52
2019-01-21T16:07:16.952Z,43.42
2019-01-21T16:10:22.274Z,43.17
2019-01-21T16:13:23.995Z,39.55
2019-01-21T16:16:46.038Z,47.35
2019-01-21T16:20:03.029Z,45.23
2019-01-21T16:23:03.652Z,43.98
2019-01-21T16:25:50.461Z,41.28
2019-01-21T16:29:05.992Z,42.75
2019-01-21T16:32:53.145Z,37.98
2019-01-21T16:36:30.582Z,43.48
2019-01-21T16:39:37.428Z,33.88
2019-01-21T16:42:19.033Z,39.03
2019-01-21T16:45:00.271Z,37.20
2019-01-21T16:47:39.637Z,41.20
2019-01-21T16:50:20.629Z,41.48
2019-01-21T16:52:59.402Z,34.60
2019-01-21T16:55:42.795Z,39.78
2019-01-21T16:58:23.046Z,32.93
2019-01-21T17:01:03.638Z,31.70
2019-01-21T17:03:43.012Z,36.30
2019-01-21T17:06:26.394Z,39.67
2019-01-21T17:09:11.229Z,33.28
2019-01-21T17:11:55.720Z,38.98
2019-01-21T17:14:37.898Z,32.88
2019-01-21T17:17:14.290Z,34.15
2019-01-21T17:19:58.761Z,31.05
2019-01-21T17:22:40.505Z,31.87
2019-01-21T17:25:19.191Z,30.00
2019-01-21T17:27:57.605Z,33.65
2019-01-21T17:30:40.344Z,34.85
2019-01-21T17:33:18.089Z,33.13
2019-01-21T17:36:00.006Z,32.85
2019-01-21T17:38:39.622Z,33.40
2019-01-21T17:41:23.952Z,29.20
2019-01-21T17:44:00.039Z,30.95
2019-01-21T17:46:42.411Z,32.03
2019-01-21T17:49:39.984Z,30.60
2019-01-21T17:52:40.253Z,28.25
2019-01-21T17:55:17.834Z,29.40
2019-01-21T17:57:59.104Z,30.37
2019-01-21T18:00:39.325Z,32.88
2019-01-21T18:03:42.642Z,31.30
2019-01-21T18:06:26.137Z,30.05
2019-01-21T18:09:09.924Z,33.23
2019-01-21T18:11:58.260Z,26.12
2019-01-21T18:14:35.646Z,30.23
2019-01-21T18:17:16.937Z,32.78
2019-01-21T18:22:57.147Z,25.77
2019-01-21T18:25:39.234Z,28.77
2019-01-21T18:28:16.087Z,28.15
2019-01-21T18:30:57.625Z,26.20
2019-01-21T18:33:56.397Z,28.92
2019-01-21T18:36:42.726Z,31.65
2019-01-21T18:39:21.412Z,27.00
2019-01-21T18:41:59.095Z,28.83
2019-01-21T18:44:48.065Z,29.40
2019-01-21T18:47:24.557Z,28.05
2019-01-21T18:50:02.667Z,28.17
2019-01-21T18:52:43.599Z,33.55
2019-01-21T18:55:28.681Z,29.75
2019-01-21T18:58:13.774Z,31.02
2019-01-21T19:00:55.252Z,24.43
2019-01-21T19:03:39.489Z,25.40
2019-01-21T19:06:34.982Z,24.60
2019-01-21T19:09:44.962Z,30.92
2019-01-21T19:12:22.967Z,28.00
2019-01-21T19:18:07.791Z,28.70
2019-01-21T19:20:48.641Z,28.70
2019-01-21T19:23:34.005Z,28.47
2019-01-21T19:26:10.710Z,30.30
2019-01-21T19:28:50.751Z,29.48
2019-01-21T19:31:32.700Z,28.95
2019-01-21T19:34:15.965Z,27.95
2019-01-21T19:37:25.278Z,27.05
2019-01-21T19:40:03.388Z,29.67
2019-01-21T19:45:44.783Z,29.40
2019-01-21T19:48:24.603Z,27.85
2019-01-21T19:51:07.727Z,26.45
2019-01-21T19:53:45.913Z,29.70
2019-01-21T19:56:26.657Z,28.20
2019-01-21T19:59:05.818Z,27.22
2019-01-21T20:01:45.365Z,31.57
2019-01-21T20:04:23.485Z,28.75
2019-01-21T20:07:10.375Z,27.45
2019-01-21T20:09:58.795Z,25.88
2019-01-21T20:12:38.646Z,23.80
2019-01-21T20:15:22.487Z,33.38
2019-01-21T20:18:02.891Z,32.00
2019-01-21T20:20:48.662Z,30.27
2019-01-21T20:23:37.736Z,27.00
2019-01-21T20:26:14.842Z,27.75
2019-01-21T20:28:56.581Z,29.60
2019-01-21T20:31:33.496Z,32.17
2019-01-21T20:34:10.756Z,31.25
2019-01-21T20:36:51.293Z,28.55
2019-01-21T20:39:35.654Z,25.02
2019-01-21T20:45:24.126Z,32.88
2019-01-21T20:48:01.483Z,30.32
2019-01-21T20:51:27.248Z,25.85
2019-01-21T20:54:09.086Z,33.85
2019-01-21T20:56:50.849Z,34.33
2019-01-21T20:59:37.590Z,29.85
2019-01-21T21:02:18.667Z,31.15
2019-01-21T21:04:56.890Z,25.25
2019-01-21T21:07:38.388Z,33.10
2019-01-21T21:10:26.563Z,30.68
2019-01-21T21:13:01.659Z,25.40
2019-01-21T21:15:36.999Z,28.07
2019-01-21T21:18:10.276Z,32.42
2019-01-21T21:20:45.866Z,32.88
2019-01-21T21:23:22.923Z,32.40
2019-01-21T21:25:59.312Z,25.90
2019-01-21T21:28:37.788Z,32.55
2019-01-21T21:31:10.608Z,35.17
2019-01-21T21:33:55.796Z,33.73
2019-01-21T21:36:31.812Z,33.28
2019-01-21T21:39:06.750Z,33.30
2019-01-21T21:41:41.680Z,32.70
2019-01-21T21:44:15.678Z,29.37
2019-01-21T21:46:49.238Z,30.68
2019-01-21T21:49:25.318Z,28.92
2019-01-21T21:51:58.861Z,33.02
2019-01-21T21:54:33.888Z,27.42
2019-01-21T21:57:25.591Z,27.85
2019-01-21T22:00:08.715Z,30.27
2019-01-21T22:02:51.147Z,29.32
2019-01-21T22:05:25.804Z,30.10
2019-01-21T22:07:58.482Z,30.92
2019-01-21T22:10:32.961Z,32.50
2019-01-21T22:13:09.861Z,36.90
2019-01-21T22:15:45.848Z,33.90
2019-01-21T22:18:28.130Z,29.95
2019-01-21T22:21:07.227Z,30.80
2019-01-21T22:23:45.849Z,32.13
2019-01-21T22:26:23.624Z,33.85
2019-01-21T22:29:05.954Z,28.40
2019-01-21T22:31:50.587Z,32.33
2019-01-21T22:34:32.892Z,32.23
2019-01-21T22:37:08.594Z,29.65
2019-01-21T22:39:55.257Z,29.30
2019-01-21T22:42:30.864Z,46.18
2019-01-21T22:45:06.997Z,32.03
2019-01-21T22:47:40.227Z,34.95
2019-01-21T22:50:14.286Z,31.48
2019-01-21T22:52:47.605Z,30.60
2019-01-21T22:55:21.093Z,34.05
2019-01-21T22:57:57.099Z,33.35
2019-01-21T23:00:57.671Z,30.62
